createdAt,value
2023-03-26T00:00:26.525Z,6.70
2023-03-26T00:05:49.672Z,6.78
2023-03-26T00:10:52.580Z,6.86
2023-03-26T00:15:55.625Z,6.91
2023-03-26T00:21:00.249Z,6.90
2023-03-26T00:26:10.580Z,6.92
2023-03-26T00:31:15.275Z,6.93
2023-03-26T00:36:20.160Z,6.93
2023-03-26T00:41:26.376Z,6.94
2023-03-26T00:46:31.623Z,7.00
2023-03-26T00:51:35.121Z,7.06
2023-03-26T00:56:39.119Z,7.07
2023-03-26T01:01:42.385Z,7.07
2023-03-26T01:06:45.283Z,7.07
2023-03-26T01:11:49.819Z,7.07
2023-03-26T01:16:56.292Z,7.04
2023-03-26T01:22:00.861Z,7.03
2023-03-26T01:27:09.921Z,6.99
2023-03-26T01:32:30.985Z,6.97
2023-03-26T01:37:53.527Z,6.98
2023-03-26T01:43:22.177Z,6.97
2023-03-26T01:48:41.338Z,6.93
2023-03-26T01:53:48.049Z,6.90
2023-03-26T01:59:03.844Z,6.89
2023-03-26T02:04:19.182Z,6.86
2023-03-26T02:09:29.080Z,6.83
2023-03-26T02:14:32.081Z,6.85
2023-03-26T02:19:34.828Z,6.88
2023-03-26T02:24:38.948Z,6.90
2023-03-26T02:29:42.692Z,6.89
2023-03-26T02:34:45.890Z,6.92
2023-03-26T02:39:48.627Z,6.92
2023-03-26T02:44:51.391Z,6.93
2023-03-26T02:49:54.284Z,6.92
2023-03-26T02:54:57.626Z,6.94
2023-03-26T03:00:05.144Z,6.94
2023-03-26T03:05:08.540Z,6.94
2023-03-26T03:10:13.946Z,6.93
2023-03-26T03:15:16.777Z,6.88
2023-03-26T03:20:19.619Z,6.85
2023-03-26T03:25:23.472Z,6.82
2023-03-26T03:30:26.291Z,6.78
2023-03-26T03:35:30.340Z,6.78
2023-03-26T03:40:33.223Z,6.80
2023-03-26T03:45:36.335Z,6.82
2023-03-26T03:50:39.092Z,6.83
2023-03-26T03:55:54.409Z,6.83
2023-03-26T04:01:01.018Z,6.84
2023-03-26T04:06:07.056Z,6.85
2023-03-26T04:11:09.935Z,6.84
2023-03-26T04:16:12.883Z,6.79
2023-03-26T04:21:16.047Z,6.76
2023-03-26T04:26:20.040Z,6.73
2023-03-26T04:31:29.476Z,6.71
2023-03-26T04:36:34.454Z,6.69
2023-03-26T04:41:37.533Z,6.66
2023-03-26T04:46:43.863Z,6.66
2023-03-26T04:51:47.574Z,6.70
2023-03-26T04:56:52.359Z,6.73
2023-03-26T05:01:56.967Z,6.71
2023-03-26T05:07:00.900Z,6.71
2023-03-26T05:12:03.921Z,6.77
2023-03-26T05:17:06.697Z,6.80
2023-03-26T05:22:09.495Z,6.80
2023-03-26T05:27:17.077Z,6.80
2023-03-26T05:32:19.890Z,6.89
2023-03-26T05:37:24.690Z,7.01
2023-03-26T05:42:27.533Z,7.10
2023-03-26T05:47:30.311Z,7.19
2023-03-26T05:52:33.595Z,7.29
2023-03-26T05:57:36.741Z,7.42
2023-03-26T06:02:39.721Z,7.54
2023-03-26T06:07:42.669Z,7.57
2023-03-26T06:12:45.496Z,7.72
2023-03-26T06:17:48.520Z,7.79
2023-03-26T06:22:51.420Z,8.10
2023-03-26T06:27:54.174Z,8.37
2023-03-26T06:32:56.979Z,8.57
2023-03-26T06:38:00.100Z,8.77
2023-03-26T06:43:09.667Z,9.14
2023-03-26T06:48:13.590Z,9.55
2023-03-26T06:53:16.388Z,9.44
2023-03-26T06:58:19.390Z,9.20
2023-03-26T07:03:23.636Z,9.13
2023-03-26T07:08:26.760Z,9.20
2023-03-26T07:13:29.617Z,9.23
2023-03-26T07:18:32.789Z,9.10
2023-03-26T07:23:36.330Z,8.99
2023-03-26T07:29:03.699Z,8.84
2023-03-26T07:34:24.675Z,8.79
2023-03-26T07:39:44.890Z,8.80
2023-03-26T07:44:58.701Z,8.93
2023-03-26T07:50:02.560Z,9.13
2023-03-26T07:55:06.434Z,9.22
2023-03-26T08:00:32.312Z,9.39
2023-03-26T08:05:43.844Z,9.34
2023-03-26T08:11:15.881Z,9.41
2023-03-26T08:16:36.846Z,9.72
2023-03-26T08:21:55.732Z,10.29
2023-03-26T08:27:13.600Z,10.70
2023-03-26T08:32:19.266Z,12.05
2023-03-26T08:37:24.036Z,11.88
2023-03-26T08:42:40.827Z,11.29
2023-03-26T08:48:11.502Z,10.69
2023-03-26T08:53:32.320Z,10.27
2023-03-26T08:58:43.976Z,10.05
2023-03-26T09:04:11.880Z,10.01
2023-03-26T09:09:20.607Z,10.40
2023-03-26T09:14:42.368Z,11.03
2023-03-26T09:19:52.648Z,11.03
2023-03-26T09:25:14.439Z,10.59
2023-03-26T09:30:31.928Z,9.95
2023-03-26T09:36:19.857Z,9.41
2023-03-26T09:42:01.130Z,8.91
2023-03-26T09:47:25.464Z,8.63
2023-03-26T09:52:40.574Z,8.79
2023-03-26T09:57:53.995Z,9.43
2023-03-26T10:03:12.276Z,9.94
2023-03-26T10:08:30.232Z,10.32
2023-03-26T10:13:50.526Z,10.47
2023-03-26T10:19:12.331Z,10.27
2023-03-26T10:24:23.972Z,10.29
2023-03-26T10:29:48.549Z,10.71
2023-03-26T10:35:30.437Z,11.00
2023-03-26T10:41:06.846Z,11.26
2023-03-26T10:46:34.358Z,11.37
2023-03-26T10:51:58.562Z,11.06
2023-03-26T10:57:06.848Z,10.91
2023-03-26T11:02:38.572Z,11.15
2023-03-26T11:08:03.845Z,11.00
2023-03-26T11:13:41.801Z,10.73
2023-03-26T11:19:08.265Z,10.73
2023-03-26T11:24:49.104Z,10.77
2023-03-26T11:30:26.694Z,10.58
2023-03-26T11:35:45.919Z,10.23
2023-03-26T11:40:56.470Z,9.96
2023-03-26T11:46:03.468Z,9.83
2023-03-26T11:51:34.442Z,9.80
2023-03-26T11:57:04.984Z,9.90
2023-03-26T12:02:12.208Z,10.28
2023-03-26T12:07:33.108Z,10.72
2023-03-26T12:12:41.924Z,10.80
2023-03-26T12:17:47.407Z,10.30
2023-03-26T12:22:52.383Z,9.44
2023-03-26T12:28:02.957Z,8.69
2023-03-26T12:33:40.403Z,8.25
2023-03-26T12:38:43.338Z,7.96
2023-03-26T12:44:54.976Z,8.16
2023-03-26T12:49:45.016Z,8.60
2023-03-26T12:54:56.933Z,8.72
2023-03-26T13:00:37.645Z,8.96
2023-03-26T13:05:55.749Z,9.33
2023-03-26T13:11:20.991Z,9.48
2023-03-26T13:16:29.984Z,9.55
2023-03-26T13:22:01.116Z,9.54
2023-03-26T13:27:27.821Z,9.55
2023-03-26T13:33:03.398Z,9.55
2023-03-26T13:38:30.096Z,9.37
2023-03-26T13:43:54.921Z,9.24
2023-03-26T13:49:10.767Z,9.58
2023-03-26T13:54:37.221Z,10.11
2023-03-26T14:00:00.587Z,10.27
2023-03-26T14:05:30.859Z,10.21
2023-03-26T14:10:40.806Z,9.82
2023-03-26T14:15:48.069Z,9.68
2023-03-26T14:21:28.961Z,9.85
2023-03-26T14:26:37.971Z,9.90
2023-03-26T14:32:06.857Z,9.90
2023-03-26T14:37:39.677Z,9.71
2023-03-26T14:42:56.587Z,9.53
2023-03-26T14:48:28.962Z,9.49
2023-03-26T14:53:37.301Z,9.27
2023-03-26T14:59:14.628Z,9.20
2023-03-26T15:04:41.689Z,9.37
2023-03-26T15:10:22.755Z,9.42
2023-03-26T15:15:38.453Z,9.37
2023-03-26T15:21:10.307Z,9.32
2023-03-26T15:26:23.496Z,9.16
2023-03-26T15:31:43.289Z,9.11
2023-03-26T15:37:22.499Z,9.26
2023-03-26T15:42:56.630Z,9.33
2023-03-26T15:48:13.017Z,9.16
2023-03-26T15:53:23.609Z,8.96
2023-03-26T15:58:30.874Z,8.78
2023-03-26T16:03:54.874Z,8.62
2023-03-26T16:09:08.115Z,8.60
2023-03-26T16:14:24.688Z,8.50
2023-03-26T16:19:36.495Z,8.30
2023-03-26T16:24:48.414Z,8.07
2023-03-26T16:30:00.683Z,7.82
2023-03-26T16:35:25.522Z,7.65
2023-03-26T16:40:37.777Z,7.55
2023-03-26T16:45:59.222Z,7.45
2023-03-26T16:51:39.283Z,7.32
2023-03-26T16:56:57.620Z,7.25
2023-03-26T17:02:09.575Z,7.18
2023-03-26T17:07:17.840Z,7.09
2023-03-26T17:12:37.022Z,7.02
2023-03-26T17:18:05.388Z,6.94
2023-03-26T17:23:36.006Z,6.93
2023-03-26T17:28:55.308Z,7.00
2023-03-26T17:34:28.585Z,7.09
2023-03-26T17:39:40.396Z,7.11
2023-03-26T17:44:49.065Z,7.11
2023-03-26T17:50:00.295Z,7.12
2023-03-26T17:55:03.826Z,7.13
2023-03-26T18:00:09.413Z,7.12
2023-03-26T18:05:15.424Z,7.09
2023-03-26T18:10:38.812Z,7.09
2023-03-26T18:16:15.523Z,7.08
2023-03-26T18:21:29.520Z,6.99
2023-03-26T18:26:46.096Z,6.95
2023-03-26T18:31:55.501Z,6.97
2023-03-26T18:37:19.634Z,6.97
2023-03-26T18:42:24.440Z,6.97
2023-03-26T18:47:30.479Z,6.95
2023-03-26T18:52:33.497Z,6.94
2023-03-26T18:57:36.814Z,6.92
2023-03-26T19:02:39.754Z,6.88
2023-03-26T19:07:46.638Z,6.83
2023-03-26T19:12:58.133Z,6.75
2023-03-26T19:18:07.561Z,6.59
2023-03-26T19:23:15.381Z,6.44
2023-03-26T19:28:33.616Z,6.38
2023-03-26T19:33:39.409Z,6.30
2023-03-26T19:38:54.053Z,6.20
2023-03-26T19:44:01.320Z,6.06
2023-03-26T19:49:04.365Z,5.94
2023-03-26T19:54:16.161Z,5.86
2023-03-26T19:59:19.395Z,5.75
2023-03-26T20:04:22.182Z,5.55
2023-03-26T20:09:25.544Z,5.35
2023-03-26T20:14:31.405Z,5.15
2023-03-26T20:19:35.443Z,4.98
2023-03-26T20:24:38.305Z,4.87
2023-03-26T20:29:42.705Z,4.75
2023-03-26T20:34:49.374Z,4.61
2023-03-26T20:39:52.179Z,4.48
2023-03-26T20:44:55.141Z,4.33
2023-03-26T20:49:57.917Z,4.23
2023-03-26T20:55:00.686Z,4.11
2023-03-26T21:00:09.236Z,4.02
2023-03-26T21:05:24.211Z,3.93
2023-03-26T21:10:30.785Z,3.86
2023-03-26T21:15:34.336Z,3.82
2023-03-26T21:20:37.967Z,3.74
2023-03-26T21:25:55.840Z,3.64
2023-03-26T21:31:01.377Z,3.54
2023-03-26T21:36:04.617Z,3.48
2023-03-26T21:41:07.850Z,3.45
2023-03-26T21:46:11.825Z,3.40
2023-03-26T21:51:14.999Z,3.31
2023-03-26T21:56:49.948Z,3.20
2023-03-26T22:02:04.621Z,3.04
2023-03-26T22:07:14.684Z,2.90
2023-03-26T22:12:18.241Z,2.82
2023-03-26T22:17:22.677Z,2.79
2023-03-26T22:22:26.317Z,2.71
2023-03-26T22:27:29.149Z,2.58
2023-03-26T22:32:34.366Z,2.44
2023-03-26T22:37:37.846Z,2.34
2023-03-26T22:42:41.573Z,2.27
2023-03-26T22:47:45.067Z,2.24
2023-03-26T22:52:50.377Z,2.18
2023-03-26T22:57:53.290Z,2.12
2023-03-26T23:03:00.411Z,2.06
2023-03-26T23:08:04.310Z,2.04
2023-03-26T23:13:07.570Z,1.98
2023-03-26T23:18:12.052Z,1.88
2023-03-26T23:23:14.819Z,1.78
2023-03-26T23:28:18.336Z,1.68
2023-03-26T23:33:23.002Z,1.60
2023-03-26T23:38:29.264Z,1.58
2023-03-26T23:43:55.495Z,1.62
2023-03-26T23:49:05.144Z,1.65
2023-03-26T23:54:08.868Z,1.63
2023-03-26T23:59:11.772Z,1.56
